sensor_id;sensor_type;location;lat;lon;timestamp;pressure;altitude;pressure_sealevel;temperature;humidity
47280;BME280;34064;44.942;0.008;2022-10-16T00:02:16;98258.13;;;20.91;61.96
47280;BME280;34064;44.942;0.008;2022-10-16T00:04:42;98256.84;;;20.86;62.24
47280;BME280;34064;44.942;0.008;2022-10-16T00:07:09;98262.63;;;20.83;62.20
47280;BME280;34064;44.942;0.008;2022-10-16T00:09:35;98257.63;;;20.80;62.14
47280;BME280;34064;44.942;0.008;2022-10-16T00:12:01;98260.72;;;20.77;61.84
47280;BME280;34064;44.942;0.008;2022-10-16T00:14:30;98258.41;;;20.74;62.03
47280;BME280;34064;44.942;0.008;2022-10-16T00:16:56;98265.84;;;20.72;62.26
47280;BME280;34064;44.942;0.008;2022-10-16T00:19:23;98269.16;;;20.67;62.12
47280;BME280;34064;44.942;0.008;2022-10-16T00:21:49;98258.72;;;20.64;62.25
47280;BME280;34064;44.942;0.008;2022-10-16T00:24:15;98250.00;;;20.62;62.15
47280;BME280;34064;44.942;0.008;2022-10-16T00:26:42;98259.97;;;20.62;62.24
47280;BME280;34064;44.942;0.008;2022-10-16T00:29:09;98259.31;;;20.60;62.19
47280;BME280;34064;44.942;0.008;2022-10-16T00:31:35;98256.19;;;20.56;62.33
47280;BME280;34064;44.942;0.008;2022-10-16T00:34:02;98258.22;;;20.54;62.31
47280;BME280;34064;44.942;0.008;2022-10-16T00:36:28;98263.19;;;20.50;62.10
47280;BME280;34064;44.942;0.008;2022-10-16T00:38:56;98268.16;;;20.47;62.26
47280;BME280;34064;44.942;0.008;2022-10-16T00:41:26;98267.69;;;20.43;62.00
47280;BME280;34064;44.942;0.008;2022-10-16T00:43:55;98274.50;;;20.39;62.23
47280;BME280;34064;44.942;0.008;2022-10-16T00:46:41;98265.16;;;20.35;62.13
47280;BME280;34064;44.942;0.008;2022-10-16T00:49:18;98259.75;;;20.35;62.36
47280;BME280;34064;44.942;0.008;2022-10-16T00:51:50;98256.41;;;20.33;62.10
47280;BME280;34064;44.942;0.008;2022-10-16T00:54:29;98261.16;;;20.31;62.20
47280;BME280;34064;44.942;0.008;2022-10-16T00:57:03;98264.22;;;20.27;62.39
47280;BME280;34064;44.942;0.008;2022-10-16T00:59:40;98274.56;;;20.24;62.40
47280;BME280;34064;44.942;0.008;2022-10-16T01:02:09;98270.16;;;20.16;62.48
47280;BME280;34064;44.942;0.008;2022-10-16T01:04:40;98281.03;;;20.08;62.46
47280;BME280;34064;44.942;0.008;2022-10-16T01:13:01;98282.97;;;19.92;62.58
47280;BME280;34064;44.942;0.008;2022-10-16T01:15:40;98286.69;;;19.91;62.49
47280;BME280;34064;44.942;0.008;2022-10-16T01:19:09;98276.31;;;19.88;62.36
47280;BME280;34064;44.942;0.008;2022-10-16T01:21:29;98275.66;;;19.86;62.35
47280;BME280;34064;44.942;0.008;2022-10-16T01:29:50;98252.41;;;19.85;62.33
47280;BME280;34064;44.942;0.008;2022-10-16T01:35:27;98244.66;;;19.82;62.49
47280;BME280;34064;44.942;0.008;2022-10-16T01:40:27;98246.72;;;19.80;62.48
47280;BME280;34064;44.942;0.008;2022-10-16T01:43:20;98243.41;;;19.78;62.34
47280;BME280;34064;44.942;0.008;2022-10-16T01:45:46;98243.78;;;19.75;62.50
47280;BME280;34064;44.942;0.008;2022-10-16T01:48:18;98247.84;;;19.71;62.80
47280;BME280;34064;44.942;0.008;2022-10-16T01:50:54;98233.78;;;19.69;62.76
47280;BME280;34064;44.942;0.008;2022-10-16T01:53:22;98235.81;;;19.67;62.66
47280;BME280;34064;44.942;0.008;2022-10-16T01:55:51;98230.78;;;19.63;62.69
47280;BME280;34064;44.942;0.008;2022-10-16T01:58:18;98230.13;;;19.61;62.74
47280;BME280;34064;44.942;0.008;2022-10-16T02:00:46;98229.53;;;19.59;62.59
47280;BME280;34064;44.942;0.008;2022-10-16T02:03:16;98228.47;;;19.60;62.70
47280;BME280;34064;44.942;0.008;2022-10-16T02:06:02;98229.53;;;19.59;62.56
47280;BME280;34064;44.942;0.008;2022-10-16T02:08:29;98231.16;;;19.60;62.60
47280;BME280;34064;44.942;0.008;2022-10-16T02:10:58;98235.53;;;19.61;62.63
47280;BME280;34064;44.942;0.008;2022-10-16T02:13:45;98231.00;;;19.62;62.68
47280;BME280;34064;44.942;0.008;2022-10-16T02:16:13;98222.06;;;19.61;62.48
47280;BME280;34064;44.942;0.008;2022-10-16T02:18:40;98226.63;;;19.61;62.48
47280;BME280;34064;44.942;0.008;2022-10-16T02:21:18;98235.53;;;19.61;62.59
47280;BME280;34064;44.942;0.008;2022-10-16T02:26:48;98222.19;;;19.53;62.61
47280;BME280;34064;44.942;0.008;2022-10-16T02:29:18;98230.00;;;19.48;62.74
47280;BME280;34064;44.942;0.008;2022-10-16T02:31:49;98235.50;;;19.40;63.14
47280;BME280;34064;44.942;0.008;2022-10-16T02:34:18;98232.53;;;19.35;62.92
47280;BME280;34064;44.942;0.008;2022-10-16T02:36:48;98244.06;;;19.28;62.73
47280;BME280;34064;44.942;0.008;2022-10-16T02:39:16;98237.34;;;19.24;62.64
47280;BME280;34064;44.942;0.008;2022-10-16T02:41:44;98232.38;;;19.21;62.65
47280;BME280;34064;44.942;0.008;2022-10-16T02:44:10;98227.81;;;19.22;62.55
47280;BME280;34064;44.942;0.008;2022-10-16T02:46:37;98221.59;;;19.21;62.89
47280;BME280;34064;44.942;0.008;2022-10-16T02:49:03;98225.31;;;19.20;62.85
47280;BME280;34064;44.942;0.008;2022-10-16T02:51:29;98223.63;;;19.19;62.75
47280;BME280;34064;44.942;0.008;2022-10-16T02:53:56;98231.91;;;19.17;62.92
47280;BME280;34064;44.942;0.008;2022-10-16T02:56:22;98239.34;;;19.15;63.20
47280;BME280;34064;44.942;0.008;2022-10-16T02:58:49;98247.56;;;19.14;62.97
47280;BME280;34064;44.942;0.008;2022-10-16T03:01:15;98250.47;;;19.12;63.01
47280;BME280;34064;44.942;0.008;2022-10-16T03:03:43;98254.53;;;19.08;63.21
47280;BME280;34064;44.942;0.008;2022-10-16T03:06:09;98256.41;;;19.08;62.94
47280;BME280;34064;44.942;0.008;2022-10-16T03:08:35;98260.97;;;19.07;62.79
47280;BME280;34064;44.942;0.008;2022-10-16T03:11:02;98256.59;;;19.06;63.14
47280;BME280;34064;44.942;0.008;2022-10-16T03:13:28;98257.41;;;19.07;63.07
47280;BME280;34064;44.942;0.008;2022-10-16T03:15:54;98259.09;;;19.08;63.04
47280;BME280;34064;44.942;0.008;2022-10-16T03:18:21;98250.00;;;19.09;63.00
47280;BME280;34064;44.942;0.008;2022-10-16T03:20:47;98252.34;;;19.12;63.02
47280;BME280;34064;44.942;0.008;2022-10-16T03:23:14;98252.34;;;19.12;63.12
47280;BME280;34064;44.942;0.008;2022-10-16T03:25:40;98247.56;;;19.14;62.93
47280;BME280;34064;44.942;0.008;2022-10-16T03:28:06;98250.25;;;19.14;63.12
47280;BME280;34064;44.942;0.008;2022-10-16T03:30:33;98247.56;;;19.14;63.38
47280;BME280;34064;44.942;0.008;2022-10-16T03:32:59;98243.88;;;19.15;63.27
47280;BME280;34064;44.942;0.008;2022-10-16T03:35:26;98236.81;;;19.14;63.15
47280;BME280;34064;44.942;0.008;2022-10-16T03:37:52;98231.63;;;19.12;63.41
47280;BME280;34064;44.942;0.008;2022-10-16T03:40:19;98235.13;;;19.13;63.24
47280;BME280;34064;44.942;0.008;2022-10-16T03:42:45;98241.72;;;19.10;63.45
47280;BME280;34064;44.942;0.008;2022-10-16T03:45:12;98240.91;;;19.10;63.19
47280;BME280;34064;44.942;0.008;2022-10-16T03:47:38;98241.94;;;19.09;63.28
47280;BME280;34064;44.942;0.008;2022-10-16T03:50:05;98246.66;;;19.07;63.58
47280;BME280;34064;44.942;0.008;2022-10-16T03:52:32;98257.78;;;19.04;63.21
47280;BME280;34064;44.942;0.008;2022-10-16T03:54:58;98255.28;;;19.02;63.27
47280;BME280;34064;44.942;0.008;2022-10-16T03:57:25;98242.84;;;19.01;63.21
47280;BME280;34064;44.942;0.008;2022-10-16T03:59:51;98235.63;;;19.01;63.31
47280;BME280;34064;44.942;0.008;2022-10-16T04:02:18;98237.31;;;19.02;63.18
47280;BME280;34064;44.942;0.008;2022-10-16T04:04:44;98242.50;;;19.04;63.24
47280;BME280;34064;44.942;0.008;2022-10-16T04:07:10;98234.41;;;19.04;63.35
47280;BME280;34064;44.942;0.008;2022-10-16T04:09:37;98237.94;;;19.05;63.35
47280;BME280;34064;44.942;0.008;2022-10-16T04:12:03;98237.94;;;19.05;63.48
47280;BME280;34064;44.942;0.008;2022-10-16T04:14:29;98235.44;;;19.03;63.46
47280;BME280;34064;44.942;0.008;2022-10-16T04:16:56;98239.13;;;19.02;63.38
47280;BME280;34064;44.942;0.008;2022-10-16T04:19:22;98234.78;;;19.01;63.34
47280;BME280;34064;44.942;0.008;2022-10-16T04:21:48;98231.25;;;19.00;63.39
47280;BME280;34064;44.942;0.008;2022-10-16T04:24:15;98234.78;;;19.01;63.21
47280;BME280;34064;44.942;0.008;2022-10-16T04:26:41;98233.09;;;19.00;63.37
47280;BME280;34064;44.942;0.008;2022-10-16T04:29:07;98236.00;;;18.98;nan
47280;BME280;34064;44.942;0.008;2022-10-16T04:31:34;98233.28;;;18.98;63.37
47280;BME280;34064;44.942;0.008;2022-10-16T04:34:00;98235.34;;;18.96;63.29
47280;BME280;34064;44.942;0.008;2022-10-16T04:36:27;98250.66;;;18.96;63.54
47280;BME280;34064;44.942;0.008;2022-10-16T04:38:53;98244.78;;;18.92;63.27
47280;BME280;34064;44.942;0.008;2022-10-16T04:41:19;98252.19;;;18.90;63.33
47280;BME280;34064;44.942;0.008;2022-10-16T04:43:46;98247.16;;;18.87;63.29
47280;BME280;34064;44.942;0.008;2022-10-16T04:46:12;98241.13;;;18.85;63.30
47280;BME280;34064;44.942;0.008;2022-10-16T04:48:38;98237.63;;;18.84;63.42
47280;BME280;34064;44.942;0.008;2022-10-16T04:51:05;98243.19;;;18.83;63.60
47280;BME280;34064;44.942;0.008;2022-10-16T04:53:31;98242.34;;;18.82;63.26
47280;BME280;34064;44.942;0.008;2022-10-16T04:55:58;98239.84;;;18.81;63.38
47280;BME280;34064;44.942;0.008;2022-10-16T04:58:24;98242.53;;;18.81;63.33
47280;BME280;34064;44.942;0.008;2022-10-16T05:00:50;98243.75;;;18.78;63.46
47280;BME280;34064;44.942;0.008;2022-10-16T05:03:17;98238.53;;;18.77;63.47
47280;BME280;34064;44.942;0.008;2022-10-16T05:05:46;98239.09;;;18.72;63.53
47280;BME280;34064;44.942;0.008;2022-10-16T05:08:14;98240.28;;;18.69;63.56
47280;BME280;34064;44.942;0.008;2022-10-16T05:10:44;98248.56;;;18.68;63.65
47280;BME280;34064;44.942;0.008;2022-10-16T05:13:11;98247.72;;;18.67;63.56
47280;BME280;34064;44.942;0.008;2022-10-16T05:15:38;98247.72;;;18.67;63.31
47280;BME280;34064;44.942;0.008;2022-10-16T05:18:04;98253.09;;;18.67;63.44
47280;BME280;34064;44.942;0.008;2022-10-16T05:20:31;98256.78;;;18.66;63.50
47280;BME280;34064;44.942;0.008;2022-10-16T05:22:57;98253.28;;;18.66;63.44
47280;BME280;34064;44.942;0.008;2022-10-16T05:25:24;98251.59;;;18.65;63.46
47280;BME280;34064;44.942;0.008;2022-10-16T05:27:50;98252.63;;;18.64;63.35
47280;BME280;34064;44.942;0.008;2022-10-16T05:30:18;98257.19;;;18.63;63.62
47280;BME280;34064;44.942;0.008;2022-10-16T05:32:51;98249.09;;;18.63;63.54
47280;BME280;34064;44.942;0.008;2022-10-16T05:35:19;98253.81;;;18.61;63.45
47280;BME280;34064;44.942;0.008;2022-10-16T05:37:46;98252.34;;;18.59;63.48
47280;BME280;34064;44.942;0.008;2022-10-16T05:40:13;98257.88;;;18.57;63.56
47280;BME280;34064;44.942;0.008;2022-10-16T05:42:40;98257.06;;;18.57;63.49
47280;BME280;34064;44.942;0.008;2022-10-16T05:45:08;98262.44;;;18.57;63.48
47280;BME280;34064;44.942;0.008;2022-10-16T05:47:35;98255.38;;;18.55;63.46
47280;BME280;34064;44.942;0.008;2022-10-16T05:50:02;98260.09;;;18.53;63.61
47280;BME280;34064;44.942;0.008;2022-10-16T05:52:30;98261.97;;;18.53;63.59
47280;BME280;34064;44.942;0.008;2022-10-16T05:54:56;98261.97;;;18.53;63.81
47280;BME280;34064;44.942;0.008;2022-10-16T05:57:22;98264.00;;;18.51;63.76
47280;BME280;34064;44.942;0.008;2022-10-16T05:59:49;98270.41;;;18.50;63.49
47280;BME280;34064;44.942;0.008;2022-10-16T06:02:15;98263.53;;;18.47;63.66
47280;BME280;34064;44.942;0.008;2022-10-16T06:04:42;98269.94;;;18.46;63.61
47280;BME280;34064;44.942;0.008;2022-10-16T06:07:08;98257.69;;;18.44;63.91
47280;BME280;34064;44.942;0.008;2022-10-16T06:09:35;98265.91;;;18.42;63.71
47280;BME280;34064;44.942;0.008;2022-10-16T06:12:01;98267.13;;;18.39;63.49
47280;BME280;34064;44.942;0.008;2022-10-16T06:14:27;98264.81;;;18.36;63.51
47280;BME280;34064;44.942;0.008;2022-10-16T06:16:54;98275.72;;;18.35;63.74
47280;BME280;34064;44.942;0.008;2022-10-16T06:19:20;98271.56;;;18.32;63.39
47280;BME280;34064;44.942;0.008;2022-10-16T06:21:47;98281.66;;;18.30;63.72
47280;BME280;34064;44.942;0.008;2022-10-16T06:24:13;98285.53;;;18.28;63.71
47280;BME280;34064;44.942;0.008;2022-10-16T06:26:40;98282.19;;;18.26;63.69
47280;BME280;34064;44.942;0.008;2022-10-16T06:29:06;98280.50;;;18.24;63.77
47280;BME280;34064;44.942;0.008;2022-10-16T06:31:33;98287.09;;;18.22;63.72
47280;BME280;34064;44.942;0.008;2022-10-16T06:34:00;98284.41;;;18.22;63.77
47280;BME280;34064;44.942;0.008;2022-10-16T06:36:27;98290.78;;;18.21;63.70
47280;BME280;34064;44.942;0.008;2022-10-16T06:38:53;98300.53;;;18.22;63.70
47280;BME280;34064;44.942;0.008;2022-10-16T06:41:21;98299.88;;;18.20;63.50
47280;BME280;34064;44.942;0.008;2022-10-16T06:43:49;98303.56;;;18.19;63.58
47280;BME280;34064;44.942;0.008;2022-10-16T06:46:18;98311.00;;;18.17;63.72
47280;BME280;34064;44.942;0.008;2022-10-16T06:48:45;98307.66;;;18.15;63.67
47280;BME280;34064;44.942;0.008;2022-10-16T06:51:14;98323.78;;;18.15;63.76
47280;BME280;34064;44.942;0.008;2022-10-16T06:53:52;98315.72;;;18.15;63.62
47280;BME280;34064;44.942;0.008;2022-10-16T06:56:23;98309.47;;;18.14;63.56
47280;BME280;34064;44.942;0.008;2022-10-16T06:58:51;98316.72;;;18.14;63.71
47280;BME280;34064;44.942;0.008;2022-10-16T07:01:19;98318.41;;;18.15;63.69
47280;BME280;34064;44.942;0.008;2022-10-16T07:03:47;98323.44;;;18.18;63.55
47280;BME280;34064;44.942;0.008;2022-10-16T07:06:16;98332.13;;;18.20;63.64
47280;BME280;34064;44.942;0.008;2022-10-16T07:08:44;98319.34;;;18.22;63.57
47280;BME280;34064;44.942;0.008;2022-10-16T07:11:13;98318.16;;;18.24;63.35
47280;BME280;34064;44.942;0.008;2022-10-16T07:13:41;98324.84;;;18.29;63.43
47280;BME280;34064;44.942;0.008;2022-10-16T07:16:17;98317.44;;;18.31;63.36
47280;BME280;34064;44.942;0.008;2022-10-16T07:18:44;98328.69;;;18.34;63.17
47280;BME280;34064;44.942;0.008;2022-10-16T07:21:21;98325.44;;;18.39;63.21
47280;BME280;34064;44.942;0.008;2022-10-16T07:23:56;98326.75;;;18.43;63.16
47280;BME280;34064;44.942;0.008;2022-10-16T07:26:24;98324.53;;;18.47;63.46
47280;BME280;34064;44.942;0.008;2022-10-16T07:28:51;98326.88;;;18.50;63.65
47280;BME280;34064;44.942;0.008;2022-10-16T07:31:19;98331.03;;;18.52;63.41
47280;BME280;34064;44.942;0.008;2022-10-16T07:33:47;98327.00;;;18.57;63.48
47280;BME280;34064;44.942;0.008;2022-10-16T07:36:15;98322.56;;;18.64;63.56
47280;BME280;34064;44.942;0.008;2022-10-16T07:38:42;98321.84;;;18.70;63.46
47280;BME280;34064;44.942;0.008;2022-10-16T07:41:11;98320.25;;;18.76;63.58
47280;BME280;34064;44.942;0.008;2022-10-16T07:43:38;98315.84;;;18.83;63.41
47280;BME280;34064;44.942;0.008;2022-10-16T07:46:05;98310.72;;;18.88;63.65
47280;BME280;34064;44.942;0.008;2022-10-16T07:48:33;98306.50;;;18.94;63.33
47280;BME280;34064;44.942;0.008;2022-10-16T07:51:01;98299.19;;;19.02;63.78
47280;BME280;34064;44.942;0.008;2022-10-16T07:53:28;98309.03;;;19.10;63.46
47280;BME280;34064;44.942;0.008;2022-10-16T07:56:02;98301.25;;;19.15;63.78
47280;BME280;34064;44.942;0.008;2022-10-16T07:58:29;98304.03;;;19.22;63.80
47280;BME280;34064;44.942;0.008;2022-10-16T08:00:56;98302.63;;;19.26;64.03
47280;BME280;34064;44.942;0.008;2022-10-16T08:03:24;98303.75;;;19.32;64.32
47280;BME280;34064;44.942;0.008;2022-10-16T08:05:50;98302.63;;;19.41;64.13
47280;BME280;34064;44.942;0.008;2022-10-16T08:08:18;98298.16;;;19.48;64.34
47280;BME280;34064;44.942;0.008;2022-10-16T08:10:45;98291.09;;;19.62;64.23
47280;BME280;34064;44.942;0.008;2022-10-16T08:13:11;98297.00;;;19.73;64.35
47280;BME280;34064;44.942;0.008;2022-10-16T08:15:43;98294.84;;;19.83;64.35
47280;BME280;34064;44.942;0.008;2022-10-16T08:18:12;98293.53;;;19.94;64.36
47280;BME280;34064;44.942;0.008;2022-10-16T08:20:40;98288.50;;;20.06;64.57
47280;BME280;34064;44.942;0.008;2022-10-16T08:23:07;98286.78;;;20.20;64.95
47280;BME280;34064;44.942;0.008;2022-10-16T08:25:35;98275.94;;;20.35;64.92
47280;BME280;34064;44.942;0.008;2022-10-16T08:28:05;98277.25;;;20.46;64.64
47280;BME280;34064;44.942;0.008;2022-10-16T08:30:34;98283.16;;;20.56;64.91
47280;BME280;34064;44.942;0.008;2022-10-16T08:33:01;98271.63;;;20.69;64.70
47280;BME280;34064;44.942;0.008;2022-10-16T08:35:28;98275.50;;;20.81;64.71
47280;BME280;34064;44.942;0.008;2022-10-16T08:37:54;98265.81;;;20.94;64.76
47280;BME280;34064;44.942;0.008;2022-10-16T08:40:24;98272.34;;;21.06;64.84
47280;BME280;34064;44.942;0.008;2022-10-16T08:43:21;98265.78;;;21.22;64.57
47280;BME280;34064;44.942;0.008;2022-10-16T08:49:05;98257.59;;;21.50;64.64
47280;BME280;34064;44.942;0.008;2022-10-16T08:51:36;98253.25;;;21.56;64.63
47280;BME280;34064;44.942;0.008;2022-10-16T08:56:36;98255.88;;;21.85;64.28
47280;BME280;34064;44.942;0.008;2022-10-16T08:59:06;98257.38;;;21.94;64.21
47280;BME280;34064;44.942;0.008;2022-10-16T09:01:46;98253.63;;;22.02;63.92
47280;BME280;34064;44.942;0.008;2022-10-16T09:04:47;98253.44;;;22.17;64.09
47280;BME280;34064;44.942;0.008;2022-10-16T09:07:39;98255.75;;;22.33;63.63
47280;BME280;34064;44.942;0.008;2022-10-16T09:10:21;98246.63;;;22.48;63.52
47280;BME280;34064;44.942;0.008;2022-10-16T09:13:09;98237.47;;;22.62;63.45
47280;BME280;34064;44.942;0.008;2022-10-16T09:15:44;98226.22;;;22.72;63.33
47280;BME280;34064;44.942;0.008;2022-10-16T09:21:31;98228.06;;;22.98;62.88
47280;BME280;34064;44.942;0.008;2022-10-16T09:24:19;98223.66;;;23.04;62.52
47280;BME280;34064;44.942;0.008;2022-10-16T09:26:47;98226.75;;;23.14;62.29
47280;BME280;34064;44.942;0.008;2022-10-16T09:29:15;98221.53;;;23.26;62.09
47280;BME280;34064;44.942;0.008;2022-10-16T09:31:42;98230.47;;;23.27;62.01
47280;BME280;34064;44.942;0.008;2022-10-16T09:34:30;98228.16;;;23.30;61.78
47280;BME280;34064;44.942;0.008;2022-10-16T09:36:59;98221.47;;;23.40;62.00
47280;BME280;34064;44.942;0.008;2022-10-16T09:39:29;98218.97;;;23.45;61.76
47280;BME280;34064;44.942;0.008;2022-10-16T09:41:55;98223.09;;;23.54;61.68
47280;BME280;34064;44.942;0.008;2022-10-16T09:44:29;98211.38;;;23.60;61.28
47280;BME280;34064;44.942;0.008;2022-10-16T09:47:04;98212.78;;;23.70;61.63
47280;BME280;34064;44.942;0.008;2022-10-16T09:49:31;98209.38;;;23.81;60.91
47280;BME280;34064;44.942;0.008;2022-10-16T09:52:05;98209.13;;;23.89;61.03
47280;BME280;34064;44.942;0.008;2022-10-16T09:54:32;98210.97;;;23.95;60.33
47280;BME280;34064;44.942;0.008;2022-10-16T09:57:10;98208.56;;;24.12;59.95
47280;BME280;34064;44.942;0.008;2022-10-16T09:59:47;98206.44;;;24.21;59.95
47280;BME280;34064;44.942;0.008;2022-10-16T10:02:16;98195.03;;;24.38;60.09
47280;BME280;34064;44.942;0.008;2022-10-16T10:04:52;98184.97;;;24.64;58.96
47280;BME280;34064;44.942;0.008;2022-10-16T10:07:27;98180.06;;;24.79;58.72
47280;BME280;34064;44.942;0.008;2022-10-16T10:09:54;98178.09;;;24.86;58.48
47280;BME280;34064;44.942;0.008;2022-10-16T10:12:28;98172.50;;;25.00;57.90
47280;BME280;34064;44.942;0.008;2022-10-16T10:15:04;98164.50;;;25.05;58.04
47280;BME280;34064;44.942;0.008;2022-10-16T10:17:32;98153.31;;;25.13;58.03
47280;BME280;34064;44.942;0.008;2022-10-16T10:20:01;98148.19;;;25.23;57.96
47280;BME280;34064;44.942;0.008;2022-10-16T10:22:44;98142.06;;;25.28;57.61
47280;BME280;34064;44.942;0.008;2022-10-16T10:33:50;98128.31;;;25.72;55.88
47280;BME280;34064;44.942;0.008;2022-10-16T10:36:35;98131.03;;;25.72;55.80
47280;BME280;34064;44.942;0.008;2022-10-16T10:39:12;98130.34;;;25.77;55.87
47280;BME280;34064;44.942;0.008;2022-10-16T10:47:47;98118.06;;;25.98;55.44
47280;BME280;34064;44.942;0.008;2022-10-16T10:59:00;98094.16;;;26.71;53.03
47280;BME280;34064;44.942;0.008;2022-10-16T11:01:56;98091.81;;;26.87;51.95
47280;BME280;34064;44.942;0.008;2022-10-16T11:07:38;98072.97;;;27.14;51.58
47280;BME280;34064;44.942;0.008;2022-10-16T11:10:17;98076.50;;;27.27;51.54
47280;BME280;34064;44.942;0.008;2022-10-16T11:12:50;98071.38;;;27.30;51.63
47280;BME280;34064;44.942;0.008;2022-10-16T11:15:31;98070.56;;;27.30;51.80
47280;BME280;34064;44.942;0.008;2022-10-16T11:18:11;98070.25;;;27.43;51.56
47280;BME280;34064;44.942;0.008;2022-10-16T11:20:54;98070.19;;;27.55;51.33
47280;BME280;34064;44.942;0.008;2022-10-16T11:23:48;98064.75;;;27.72;50.44
47280;BME280;34064;44.942;0.008;2022-10-16T11:26:20;98066.84;;;27.82;50.05
47280;BME280;34064;44.942;0.008;2022-10-16T11:28:51;98054.84;;;28.00;49.77
47280;BME280;34064;44.942;0.008;2022-10-16T11:31:39;98051.81;;;28.13;49.15
47280;BME280;34064;44.942;0.008;2022-10-16T11:39:30;98046.66;;;28.56;47.80
47280;BME280;34064;44.942;0.008;2022-10-16T11:42:18;98054.31;;;28.59;47.86
47280;BME280;34064;44.942;0.008;2022-10-16T11:47:38;98050.47;;;28.55;47.61
47280;BME280;34064;44.942;0.008;2022-10-16T11:50:33;98064.13;;;28.55;48.14
47280;BME280;34064;44.942;0.008;2022-10-16T11:55:54;98052.31;;;28.72;47.08
47280;BME280;34064;44.942;0.008;2022-10-16T12:01:57;98049.69;;;29.04;47.03
47280;BME280;34064;44.942;0.008;2022-10-16T12:09:22;98035.47;;;29.30;46.10
47280;BME280;34064;44.942;0.008;2022-10-16T12:11:50;98044.13;;;29.21;46.21
47280;BME280;34064;44.942;0.008;2022-10-16T12:16:54;98049.50;;;29.11;45.53
47280;BME280;34064;44.942;0.008;2022-10-16T12:19:23;98053.63;;;29.14;45.68
47280;BME280;34064;44.942;0.008;2022-10-16T12:21:51;98050.31;;;29.11;45.12
47280;BME280;34064;44.942;0.008;2022-10-16T12:24:32;98040.84;;;29.19;44.95
47280;BME280;34064;44.942;0.008;2022-10-16T12:26:59;98036.09;;;29.37;43.78
47280;BME280;34064;44.942;0.008;2022-10-16T12:29:39;98036.19;;;29.47;45.13
47280;BME280;34064;44.942;0.008;2022-10-16T12:32:34;98031.72;;;29.68;44.80
47280;BME280;34064;44.942;0.008;2022-10-16T12:35:03;98019.50;;;29.81;44.43
47280;BME280;34064;44.942;0.008;2022-10-16T12:37:36;98031.03;;;29.83;43.98
47280;BME280;34064;44.942;0.008;2022-10-16T12:40:28;98030.03;;;29.95;43.57
47280;BME280;34064;44.942;0.008;2022-10-16T12:42:56;98019.97;;;30.00;43.94
47280;BME280;34064;44.942;0.008;2022-10-16T12:45:29;98020.31;;;30.14;42.69
47280;BME280;34064;44.942;0.008;2022-10-16T12:47:58;98004.19;;;30.23;42.89
47280;BME280;34064;44.942;0.008;2022-10-16T12:50:37;97995.75;;;30.30;42.35
47280;BME280;34064;44.942;0.008;2022-10-16T12:53:19;97996.06;;;30.39;42.88
47280;BME280;34064;44.942;0.008;2022-10-16T12:59:06;98012.22;;;30.40;41.82
47280;BME280;34064;44.942;0.008;2022-10-16T13:04:43;97999.38;;;30.41;41.80
47280;BME280;34064;44.942;0.008;2022-10-16T13:10:51;98014.84;;;30.19;41.50
47280;BME280;34064;44.942;0.008;2022-10-16T13:14:09;98020.03;;;30.11;42.16
47280;BME280;34064;44.942;0.008;2022-10-16T13:20:06;98036.31;;;29.95;42.14
47280;BME280;34064;44.942;0.008;2022-10-16T13:22:51;98035.06;;;30.08;41.85
47280;BME280;34064;44.942;0.008;2022-10-16T13:25:50;98029.69;;;30.29;41.68
47280;BME280;34064;44.942;0.008;2022-10-16T13:28:17;98018.84;;;30.49;41.86
47280;BME280;34064;44.942;0.008;2022-10-16T13:30:53;98007.47;;;30.73;41.10
47280;BME280;34064;44.942;0.008;2022-10-16T13:36:00;98010.81;;;30.96;40.44
47280;BME280;34064;44.942;0.008;2022-10-16T13:38:29;98011.09;;;31.00;40.36
47280;BME280;34064;44.942;0.008;2022-10-16T13:40:59;98005.63;;;31.10;40.41
47280;BME280;34064;44.942;0.008;2022-10-16T13:43:43;98003.22;;;31.19;39.84
47280;BME280;34064;44.942;0.008;2022-10-16T13:46:15;97997.47;;;31.25;40.30
47280;BME280;34064;44.942;0.008;2022-10-16T13:48:42;97993.34;;;31.43;40.08
47280;BME280;34064;44.942;0.008;2022-10-16T13:51:17;97996.09;;;31.43;39.94
47280;BME280;34064;44.942;0.008;2022-10-16T13:53:45;97987.88;;;31.59;39.99
47280;BME280;34064;44.942;0.008;2022-10-16T13:56:22;97993.91;;;31.66;39.39
47280;BME280;34064;44.942;0.008;2022-10-16T13:59:05;97989.22;;;31.67;38.76
47280;BME280;34064;44.942;0.008;2022-10-16T14:01:34;97993.38;;;31.59;39.46
47280;BME280;34064;44.942;0.008;2022-10-16T14:04:09;97981.28;;;31.70;39.28
47280;BME280;34064;44.942;0.008;2022-10-16T14:06:40;97990.91;;;31.73;39.53
47280;BME280;34064;44.942;0.008;2022-10-16T14:09:29;97981.84;;;31.78;38.93
47280;BME280;34064;44.942;0.008;2022-10-16T14:12:01;97981.56;;;31.79;38.62
47280;BME280;34064;44.942;0.008;2022-10-16T14:14:43;97979.09;;;31.88;39.28
47280;BME280;34064;44.942;0.008;2022-10-16T14:17:15;97977.41;;;32.02;39.05
47280;BME280;34064;44.942;0.008;2022-10-16T14:19:50;97976.84;;;32.16;38.55
47280;BME280;34064;44.942;0.008;2022-10-16T14:24:50;97970.22;;;32.32;38.81
47280;BME280;34064;44.942;0.008;2022-10-16T14:27:36;97967.63;;;32.51;38.33
47280;BME280;34064;44.942;0.008;2022-10-16T14:30:17;97963.78;;;32.58;37.77
47280;BME280;34064;44.942;0.008;2022-10-16T14:32:55;97975.63;;;32.48;37.52
47280;BME280;34064;44.942;0.008;2022-10-16T14:37:54;97977.75;;;32.66;37.69
47280;BME280;34064;44.942;0.008;2022-10-16T14:40:25;97961.78;;;32.69;37.41
47280;BME280;34064;44.942;0.008;2022-10-16T14:42:52;97962.88;;;32.73;37.64
47280;BME280;34064;44.942;0.008;2022-10-16T14:45:21;97973.34;;;32.65;37.58
47280;BME280;34064;44.942;0.008;2022-10-16T14:47:56;97988.75;;;32.66;37.56
47280;BME280;34064;44.942;0.008;2022-10-16T14:50:24;97973.88;;;32.67;37.34
47280;BME280;34064;44.942;0.008;2022-10-16T14:52:51;97978.59;;;32.67;37.40
47280;BME280;34064;44.942;0.008;2022-10-16T14:55:18;97978.59;;;32.62;37.25
47280;BME280;34064;44.942;0.008;2022-10-16T14:57:45;97984.59;;;32.69;37.08
47280;BME280;34064;44.942;0.008;2022-10-16T15:00:21;97974.44;;;32.70;37.28